Stampa

METAR LIMJ - Aeroporto di Genova Sestri GOA

Genova / Sestri, Italy (LIMJ) 44-25N 008-51E 3M

May 26, 2019 - 09:50 PM EDT / 2019.05.27 0150 UTC

Wind: from the ENE (060 degrees) at 5 MPH (4 KT) (direction variable):0

Visibility: greater than 7 mile(s):0

Sky conditions: mostly cloudy

Weather: light drizzle

Temperature: 64 F (18 C)

Dew Point: 53 F (12 C)

Relative Humidity: 67%

Pressure (altimeter): 29.77 in. Hg (1008 hPa)

ob: LIMJ 270150Z 06004KT 020V100 9999 -DZ FEW035 BKN070 18/12 Q1008

cycle: 2

 Dati METAR in tempo reale | Fonte: NOAA


Ritieni il contenuto di questa pagina incompleto, non attendibile oppure oggetto di altre problematiche? INVIA UNA SEGNALAZIONE Grazie!